createdAt,value
2017-11-11T00:01:39.354Z,95830.72
2017-11-11T00:04:06.938Z,95826.52
2017-11-11T00:06:34.528Z,95823.23
2017-11-11T00:09:02.147Z,95827.62
2017-11-11T00:11:29.811Z,95825.29
2017-11-11T00:13:57.367Z,95842.42
2017-11-11T00:16:24.931Z,95828.47
2017-11-11T00:18:52.750Z,95837.30
2017-11-11T00:21:20.327Z,95836.63
2017-11-11T00:23:47.901Z,95827.77
2017-11-11T00:26:15.629Z,95836.19
2017-11-11T00:28:43.234Z,95831.41
2017-11-11T00:31:11.358Z,95822.79
2017-11-11T00:33:39.057Z,95818.13
2017-11-11T00:36:06.804Z,95796.20
2017-11-11T00:38:34.363Z,95820.75
2017-11-11T00:41:01.948Z,95814.46
2017-11-11T00:43:29.543Z,95821.61
2017-11-11T00:45:57.125Z,95814.48
2017-11-11T00:48:24.781Z,95814.39
2017-11-11T00:50:52.365Z,95818.54
2017-11-11T00:53:19.922Z,95813.00
2017-11-11T00:55:47.531Z,95806.59
2017-11-11T00:58:15.135Z,95814.83
2017-11-11T01:00:42.716Z,95811.09
2017-11-11T01:03:10.755Z,95797.33
2017-11-11T01:05:38.372Z,95798.67
2017-11-11T01:08:05.995Z,95800.84
2017-11-11T01:10:33.602Z,95794.89
2017-11-11T01:13:01.188Z,95789.20
2017-11-11T01:15:28.755Z,95788.02
2017-11-11T01:17:56.343Z,95785.33
2017-11-11T01:20:23.934Z,95794.28
2017-11-11T01:22:51.564Z,95794.42
2017-11-11T01:25:19.197Z,95799.06
2017-11-11T01:27:46.788Z,95793.94
2017-11-11T01:30:14.447Z,95783.63
2017-11-11T01:32:42.088Z,95788.79
2017-11-11T01:35:09.745Z,95784.48
2017-11-11T01:37:37.925Z,95778.18
2017-11-11T01:40:05.534Z,95779.45
2017-11-11T01:42:33.092Z,95783.38
2017-11-11T01:45:00.683Z,95772.41
2017-11-11T01:47:28.414Z,95766.06
2017-11-11T01:49:55.953Z,95766.31
2017-11-11T01:52:23.565Z,95766.83
2017-11-11T01:54:51.118Z,95761.98
2017-11-11T01:57:19.029Z,95765.44
2017-11-11T01:59:46.635Z,95776.19
2017-11-11T02:02:14.215Z,95785.01
2017-11-11T02:04:41.793Z,95780.99
2017-11-11T02:07:09.882Z,95772.02
2017-11-11T02:09:37.450Z,95780.31
2017-11-11T02:12:05.017Z,95771.09
2017-11-11T02:14:32.591Z,95771.92
2017-11-11T02:17:00.178Z,95759.12
2017-11-11T02:19:27.766Z,95757.06
2017-11-11T02:21:55.318Z,95756.76
2017-11-11T02:24:22.901Z,95759.23
2017-11-11T02:26:50.468Z,95766.08
2017-11-11T02:29:18.411Z,95771.28
2017-11-11T02:31:46.001Z,95757.73
2017-11-11T02:34:13.619Z,95756.00
2017-11-11T02:36:41.211Z,95766.72
2017-11-11T02:39:09.251Z,95765.66
2017-11-11T02:41:36.848Z,95769.92
2017-11-11T02:44:04.408Z,95771.05
2017-11-11T02:46:32.020Z,95775.03
2017-11-11T02:49:00.138Z,95774.72
2017-11-11T02:51:28.119Z,95786.48
2017-11-11T02:53:55.702Z,95782.27
2017-11-11T02:56:23.614Z,95775.67
2017-11-11T02:58:51.302Z,95767.62
2017-11-11T03:01:18.881Z,95768.18
2017-11-11T03:03:49.108Z,95766.62
2017-11-11T03:06:16.765Z,95765.45
2017-11-11T03:08:44.659Z,95770.36
2017-11-11T03:11:12.744Z,95776.86
2017-11-11T03:13:40.353Z,95767.39
2017-11-11T03:16:07.932Z,95791.48
2017-11-11T03:21:26.702Z,95763.89
2017-11-11T03:23:54.659Z,95775.34
2017-11-11T03:26:22.250Z,95757.37
2017-11-11T03:28:49.835Z,95762.27
2017-11-11T03:31:17.444Z,95787.17
2017-11-11T03:33:45.234Z,95790.14
2017-11-11T03:36:12.829Z,95788.25
2017-11-11T03:38:40.423Z,95789.66
2017-11-11T03:41:08.911Z,95793.65
2017-11-11T03:43:36.876Z,95791.04
2017-11-11T03:46:05.381Z,95774.69
2017-11-11T03:48:32.986Z,95776.47
2017-11-11T03:51:03.261Z,95770.35
2017-11-11T03:53:31.499Z,95779.08
2017-11-11T03:56:01.260Z,95778.50
2017-11-11T03:58:28.960Z,95787.98
2017-11-11T04:00:56.525Z,95782.05
2017-11-11T04:03:24.296Z,95782.37
2017-11-11T04:05:51.884Z,95780.42
2017-11-11T04:08:19.534Z,95786.78
2017-11-11T04:10:47.082Z,95793.13
2017-11-11T04:13:14.667Z,95795.94
2017-11-11T04:15:42.236Z,95786.89
2017-11-11T04:18:09.835Z,95786.18
2017-11-11T04:20:37.450Z,95806.28
2017-11-11T04:23:05.297Z,95810.00
2017-11-11T04:25:33.026Z,95811.97
2017-11-11T04:28:00.632Z,95818.41
2017-11-11T04:30:28.270Z,95819.09
2017-11-11T04:32:55.846Z,95821.25
2017-11-11T04:35:23.518Z,95819.75
2017-11-11T04:37:51.185Z,95822.35
2017-11-11T04:40:18.745Z,95824.20
2017-11-11T04:42:46.362Z,95829.73
2017-11-11T04:45:14.244Z,95837.66
2017-11-11T04:47:41.875Z,95837.00
2017-11-11T04:50:09.483Z,95840.23
2017-11-11T04:52:37.055Z,95841.03
2017-11-11T04:55:04.720Z,95841.06
2017-11-11T04:57:32.329Z,95842.19
2017-11-11T04:59:59.929Z,95844.94
2017-11-11T05:02:27.495Z,95838.48
2017-11-11T05:04:55.061Z,95849.19
2017-11-11T05:07:23.424Z,95842.00
2017-11-11T05:09:50.992Z,95851.98
2017-11-11T05:12:18.561Z,95856.94
2017-11-11T05:14:46.175Z,95850.16
2017-11-11T05:17:13.976Z,95864.53
2017-11-11T05:19:41.586Z,95860.63
2017-11-11T05:22:09.215Z,95870.96
2017-11-11T05:24:36.839Z,95868.33
2017-11-11T05:27:04.830Z,95862.41
2017-11-11T05:29:32.659Z,95864.20
2017-11-11T05:32:00.243Z,95873.62
2017-11-11T05:34:27.799Z,95876.10
2017-11-11T05:36:55.375Z,95875.13
2017-11-11T05:39:23.402Z,95874.88
2017-11-11T05:41:50.979Z,95888.53
2017-11-11T05:44:18.548Z,95890.65
2017-11-11T05:46:46.098Z,95885.99
2017-11-11T05:49:13.726Z,95879.53
2017-11-11T05:51:41.306Z,95874.75
2017-11-11T05:54:08.862Z,95878.24
2017-11-11T05:56:36.426Z,95891.52
2017-11-11T05:59:04.000Z,95886.38
2017-11-11T06:01:31.978Z,95892.72
2017-11-11T06:03:59.578Z,95892.61
2017-11-11T06:06:27.141Z,95883.42
2017-11-11T06:08:55.477Z,95893.77
2017-11-11T06:11:23.136Z,95895.07
2017-11-11T06:13:50.797Z,95896.72
2017-11-11T06:16:18.652Z,95874.94
2017-11-11T06:21:36.752Z,95900.84
2017-11-11T06:24:04.331Z,95901.25
2017-11-11T06:26:32.704Z,95897.56
2017-11-11T06:29:00.306Z,95894.13
2017-11-11T06:31:28.243Z,95905.83
2017-11-11T06:33:55.790Z,95900.67
2017-11-11T06:36:23.572Z,95905.75
2017-11-11T06:38:51.303Z,95909.24
2017-11-11T06:41:18.863Z,95906.45
2017-11-11T06:43:46.448Z,95906.30
2017-11-11T06:46:14.000Z,95915.26
2017-11-11T06:48:41.574Z,95914.25
2017-11-11T06:51:09.499Z,95925.08
2017-11-11T06:53:37.052Z,95921.69
2017-11-11T06:56:04.627Z,95930.92
2017-11-11T06:58:32.165Z,95930.70
2017-11-11T07:00:59.742Z,95937.41
2017-11-11T07:03:27.630Z,95944.52
2017-11-11T07:05:55.283Z,95938.64
2017-11-11T07:08:22.857Z,95943.88
2017-11-11T07:10:50.438Z,95939.27
2017-11-11T07:13:18.200Z,95948.92
2017-11-11T07:15:45.769Z,95939.37
2017-11-11T07:18:13.414Z,95934.10
2017-11-11T07:20:41.935Z,95932.45
2017-11-11T07:23:11.406Z,95930.86
2017-11-11T07:25:39.307Z,95937.41
2017-11-11T07:28:06.874Z,95942.27
2017-11-11T07:30:34.477Z,95940.55
2017-11-11T07:33:02.051Z,95939.69
2017-11-11T07:35:29.626Z,95938.09
2017-11-11T07:37:57.216Z,95936.35
2017-11-11T07:40:24.925Z,95937.59
2017-11-11T07:42:52.487Z,95947.84
2017-11-11T07:45:20.742Z,95943.31
2017-11-11T07:47:50.732Z,95952.73
2017-11-11T07:50:18.293Z,95946.30
2017-11-11T07:52:45.911Z,95952.32
2017-11-11T07:55:13.582Z,95954.86
2017-11-11T07:57:41.123Z,95944.89
2017-11-11T08:00:08.720Z,95953.19
2017-11-11T08:02:36.274Z,95947.59
2017-11-11T08:05:03.871Z,95950.87
2017-11-11T08:07:31.714Z,95947.38
2017-11-11T08:09:59.283Z,95960.91
2017-11-11T08:12:26.835Z,95964.14
2017-11-11T08:14:54.415Z,95968.20
2017-11-11T08:17:22.033Z,95952.87
2017-11-11T08:19:49.611Z,95958.48
2017-11-11T08:22:17.224Z,95962.92
2017-11-11T08:24:44.777Z,95960.64
2017-11-11T08:27:12.328Z,95952.86
2017-11-11T08:29:40.268Z,95950.24
2017-11-11T08:32:10.784Z,95949.60
2017-11-11T08:34:38.373Z,95950.38
2017-11-11T08:37:06.222Z,95954.25
2017-11-11T08:39:33.796Z,95947.39
2017-11-11T08:42:01.381Z,95943.22
2017-11-11T08:44:29.040Z,95944.30
2017-11-11T08:46:56.592Z,95948.65
2017-11-11T08:49:24.170Z,95944.66
2017-11-11T08:51:51.811Z,95944.42
2017-11-11T08:54:19.376Z,95945.97
2017-11-11T08:56:46.932Z,95942.36
2017-11-11T08:59:15.316Z,95935.98
2017-11-11T09:01:42.879Z,95930.41
2017-11-11T09:04:10.464Z,95927.88
2017-11-11T09:06:38.047Z,95927.47
2017-11-11T09:09:05.958Z,95926.08
2017-11-11T09:11:33.526Z,95920.25
2017-11-11T09:14:01.085Z,95914.52
2017-11-11T09:16:28.680Z,95912.69
2017-11-11T09:18:56.263Z,95913.71
2017-11-11T09:21:24.740Z,95937.33
2017-11-11T09:23:53.529Z,95920.80
2017-11-11T09:26:21.527Z,95914.98
2017-11-11T09:28:49.338Z,95916.66
2017-11-11T09:31:17.266Z,95906.25
2017-11-11T09:33:44.893Z,95902.90
2017-11-11T09:36:12.550Z,95914.38
2017-11-11T09:38:40.138Z,95908.50
2017-11-11T09:41:07.870Z,95902.70
2017-11-11T09:43:36.164Z,95899.17
2017-11-11T09:46:03.722Z,95898.98
2017-11-11T09:48:31.274Z,95893.81
2017-11-11T09:50:58.839Z,95904.36
2017-11-11T09:53:26.424Z,95896.78
2017-11-11T09:55:53.986Z,95907.13
2017-11-11T09:58:22.455Z,95897.19
2017-11-11T10:00:50.090Z,95902.41
2017-11-11T10:03:17.673Z,95899.30
2017-11-11T10:05:45.235Z,95891.90
2017-11-11T10:08:12.836Z,95892.34
2017-11-11T10:10:40.400Z,95893.48
2017-11-11T10:13:09.021Z,95893.28
2017-11-11T10:15:36.768Z,95891.25
2017-11-11T10:18:04.535Z,95896.42
2017-11-11T10:20:32.144Z,95882.72
2017-11-11T10:22:59.749Z,95883.61
2017-11-11T10:25:27.329Z,95872.48
2017-11-11T10:27:54.913Z,95875.15
2017-11-11T10:30:22.517Z,95860.16
2017-11-11T10:32:50.096Z,95875.67
2017-11-11T10:35:18.960Z,95866.83
2017-11-11T10:37:46.585Z,95864.50
2017-11-11T10:40:14.142Z,95872.64
2017-11-11T10:42:41.712Z,95870.44
2017-11-11T10:45:09.398Z,95869.03
2017-11-11T10:47:36.972Z,95863.77
2017-11-11T10:50:04.547Z,95851.22
2017-11-11T10:52:32.126Z,95860.16
2017-11-11T10:54:59.668Z,95861.40
2017-11-11T10:57:27.757Z,95846.89
2017-11-11T10:59:55.358Z,95857.20
2017-11-11T11:02:26.079Z,95855.52
2017-11-11T11:04:56.213Z,95843.87
2017-11-11T11:07:24.183Z,95850.33
2017-11-11T11:09:51.767Z,95844.21
2017-11-11T11:12:19.325Z,95835.06
2017-11-11T11:14:49.691Z,95836.05
2017-11-11T11:17:17.256Z,95837.78
2017-11-11T11:19:46.036Z,95828.95
2017-11-11T11:22:13.634Z,95825.05
2017-11-11T11:24:44.745Z,95820.80
2017-11-11T11:27:12.902Z,95817.63
2017-11-11T11:29:41.435Z,95822.77
2017-11-11T11:32:09.062Z,95798.38
2017-11-11T11:34:36.695Z,95792.45
2017-11-11T11:37:04.952Z,95799.01
2017-11-11T11:39:32.685Z,95790.39
2017-11-11T11:42:00.312Z,95771.03
2017-11-11T11:44:27.894Z,95775.98
2017-11-11T11:46:55.976Z,95769.56
2017-11-11T11:49:23.840Z,95772.67
2017-11-11T11:51:51.408Z,95770.98
2017-11-11T11:54:18.983Z,95763.70
2017-11-11T11:56:46.585Z,95758.49
2017-11-11T11:59:14.257Z,95755.27
2017-11-11T12:01:41.846Z,95747.06
2017-11-11T12:04:09.568Z,95754.07
2017-11-11T12:06:37.174Z,95738.11
2017-11-11T12:09:05.063Z,95733.98
2017-11-11T12:11:34.254Z,95742.95
2017-11-11T12:14:01.845Z,95737.48
2017-11-11T12:16:29.428Z,95748.33
2017-11-11T12:18:57.027Z,95744.48
2017-11-11T12:21:25.349Z,95741.02
2017-11-11T12:23:52.904Z,95740.89
2017-11-11T12:26:20.501Z,95730.40
2017-11-11T12:28:48.121Z,95738.77
2017-11-11T12:31:15.681Z,95737.11
2017-11-11T12:33:43.307Z,95745.29
2017-11-11T12:36:10.926Z,95739.84
2017-11-11T12:38:38.518Z,95721.69
2017-11-11T12:41:06.820Z,95719.97
2017-11-11T12:43:34.389Z,95723.14
2017-11-11T12:46:01.986Z,95711.48
2017-11-11T12:48:29.651Z,95705.42
2017-11-11T12:50:57.597Z,95708.77
2017-11-11T12:53:25.216Z,95687.41
2017-11-11T12:55:52.795Z,95693.97
2017-11-11T12:58:20.472Z,95685.41
2017-11-11T13:00:48.065Z,95689.13
2017-11-11T13:03:15.628Z,95679.83
2017-11-11T13:05:43.262Z,95667.33
2017-11-11T13:08:10.869Z,95663.25
2017-11-11T13:10:38.458Z,95667.38
2017-11-11T13:13:06.381Z,95661.38
2017-11-11T13:15:33.969Z,95643.89
2017-11-11T13:18:01.523Z,95658.16
2017-11-11T13:20:29.114Z,95643.84
2017-11-11T13:22:56.759Z,95645.12
2017-11-11T13:25:25.142Z,95639.02
2017-11-11T13:27:52.771Z,95632.27
2017-11-11T13:30:20.401Z,95634.64
2017-11-11T13:32:48.002Z,95621.27
2017-11-11T13:35:15.607Z,95623.06
2017-11-11T13:37:43.166Z,95631.71
2017-11-11T13:40:10.763Z,95621.30
2017-11-11T13:42:38.331Z,95622.35
2017-11-11T13:45:06.143Z,95597.34
2017-11-11T13:47:33.743Z,95621.67
2017-11-11T13:50:01.324Z,95620.19
2017-11-11T13:52:28.950Z,95608.45
2017-11-11T13:54:56.548Z,95612.70
2017-11-11T13:57:24.152Z,95607.41
2017-11-11T13:59:51.736Z,95600.59
2017-11-11T14:02:19.690Z,95600.78
2017-11-11T14:04:47.275Z,95596.07
2017-11-11T14:07:14.863Z,95595.73
2017-11-11T14:09:42.517Z,95601.00
2017-11-11T14:12:11.157Z,95594.89
2017-11-11T14:14:38.846Z,95590.48
2017-11-11T14:17:07.184Z,95586.14
2017-11-11T14:19:34.820Z,95575.97
2017-11-11T14:22:02.439Z,95574.62
2017-11-11T14:24:30.020Z,95572.03
2017-11-11T14:26:57.580Z,95567.50
2017-11-11T14:29:25.175Z,95563.35
2017-11-11T14:31:52.752Z,95558.64
2017-11-11T14:34:20.398Z,95565.80
2017-11-11T14:36:48.022Z,95552.58
2017-11-11T14:39:15.629Z,95552.98
2017-11-11T14:41:43.245Z,95555.52
2017-11-11T14:44:10.878Z,95546.31
2017-11-11T14:46:38.462Z,95537.77
2017-11-11T14:49:06.130Z,95537.63
2017-11-11T14:51:33.766Z,95531.28
2017-11-11T14:54:01.309Z,95530.50
2017-11-11T14:56:28.928Z,95526.89
2017-11-11T14:58:56.527Z,95524.27
2017-11-11T15:01:24.446Z,95515.95
2017-11-11T15:03:52.214Z,95517.89
2017-11-11T15:06:19.994Z,95509.80
2017-11-11T15:08:49.479Z,95512.66
2017-11-11T15:11:17.321Z,95511.94
2017-11-11T15:13:46.251Z,95514.64
2017-11-11T15:16:13.957Z,95507.00
2017-11-11T15:18:42.583Z,95500.56
2017-11-11T15:21:12.255Z,95503.25
2017-11-11T15:23:39.867Z,95494.72
2017-11-11T15:26:07.463Z,95495.85
2017-11-11T15:28:35.093Z,95500.57
2017-11-11T15:31:02.730Z,95493.02
2017-11-11T15:33:30.436Z,95488.52
2017-11-11T15:35:59.136Z,95484.56
2017-11-11T15:38:26.726Z,95475.53
2017-11-11T15:40:58.381Z,95469.97
2017-11-11T15:43:26.100Z,95465.17
2017-11-11T15:45:54.370Z,95459.49
2017-11-11T15:48:21.990Z,95448.75
2017-11-11T15:50:49.568Z,95450.14
2017-11-11T15:53:17.137Z,95441.98
2017-11-11T15:55:44.754Z,95449.51
2017-11-11T15:58:12.345Z,95444.45
2017-11-11T16:00:39.961Z,95446.62
2017-11-11T16:03:12.257Z,95436.31
2017-11-11T16:05:40.802Z,95430.73
2017-11-11T16:08:08.451Z,95435.14
2017-11-11T16:10:36.361Z,95432.78
2017-11-11T16:13:03.989Z,95432.34
2017-11-11T16:15:31.634Z,95423.41
2017-11-11T16:20:49.130Z,95417.34
2017-11-11T16:23:16.678Z,95419.55
2017-11-11T16:25:44.283Z,95416.45
2017-11-11T16:28:11.916Z,95416.83
2017-11-11T16:30:39.480Z,95405.78
2017-11-11T16:33:07.201Z,95411.37
2017-11-11T16:35:34.796Z,95403.66
2017-11-11T16:38:02.355Z,95397.98
2017-11-11T16:40:29.912Z,95398.95
2017-11-11T16:42:57.563Z,95393.38
2017-11-11T16:45:25.861Z,95389.28
2017-11-11T16:47:53.481Z,95383.43
2017-11-11T16:50:21.164Z,95388.83
2017-11-11T16:52:49.654Z,95386.48
2017-11-11T16:55:17.788Z,95396.61
2017-11-11T16:57:45.961Z,95393.33
2017-11-11T17:00:13.593Z,95386.41
2017-11-11T17:02:41.152Z,95390.11
2017-11-11T17:05:08.878Z,95395.31
2017-11-11T17:07:36.491Z,95397.93
2017-11-11T17:10:04.062Z,95392.36
2017-11-11T17:12:31.653Z,95389.36
2017-11-11T17:14:59.272Z,95384.36
2017-11-11T17:17:27.580Z,95381.63
2017-11-11T17:19:55.127Z,95382.00
2017-11-11T17:22:23.305Z,95387.91
2017-11-11T17:24:50.897Z,95378.78
2017-11-11T17:27:18.716Z,95380.99
2017-11-11T17:29:46.728Z,95381.14
2017-11-11T17:32:14.436Z,95377.17
2017-11-11T17:34:42.034Z,95382.78
2017-11-11T17:37:09.934Z,95374.78
2017-11-11T17:39:37.565Z,95370.64
2017-11-11T17:42:05.154Z,95361.44
2017-11-11T17:44:32.769Z,95363.12
2017-11-11T17:47:00.350Z,95363.72
2017-11-11T17:49:28.444Z,95355.42
2017-11-11T17:51:56.153Z,95363.02
2017-11-11T17:57:14.589Z,95359.95
2017-11-11T17:59:42.843Z,95356.59
2017-11-11T18:02:10.458Z,95348.84
2017-11-11T18:04:38.076Z,95343.36
2017-11-11T18:07:06.952Z,95349.94
2017-11-11T18:09:35.601Z,95342.16
2017-11-11T18:12:03.309Z,95347.95
2017-11-11T18:14:30.895Z,95339.54
2017-11-11T18:16:59.873Z,95344.70
2017-11-11T18:19:27.526Z,95341.45
2017-11-11T18:21:55.148Z,95339.01
2017-11-11T18:24:23.836Z,95338.67
2017-11-11T18:26:51.407Z,95340.15
2017-11-11T18:29:18.954Z,95330.09
2017-11-11T18:31:46.567Z,95333.31
2017-11-11T18:34:14.163Z,95345.45
2017-11-11T18:36:41.702Z,95331.43
2017-11-11T18:39:09.722Z,95326.84
2017-11-11T18:41:37.340Z,95334.29
2017-11-11T18:44:04.990Z,95324.02
2017-11-11T18:46:32.543Z,95332.44
2017-11-11T18:49:00.139Z,95317.09
2017-11-11T18:51:27.681Z,95318.84
2017-11-11T18:53:55.235Z,95309.06
2017-11-11T18:56:23.065Z,95317.74
2017-11-11T18:58:50.706Z,95308.66
2017-11-11T19:01:18.327Z,95303.69
2017-11-11T19:03:47.893Z,95308.55
2017-11-11T19:06:15.502Z,95304.07
2017-11-11T19:08:43.098Z,95296.42
2017-11-11T19:11:16.203Z,95279.41
2017-11-11T19:13:44.135Z,95275.59
2017-11-11T19:16:11.706Z,95277.17
2017-11-11T19:18:39.543Z,95269.05
2017-11-11T19:21:07.247Z,95261.18
2017-11-11T19:23:35.729Z,95256.45
2017-11-11T19:26:03.366Z,95251.67
2017-11-11T19:28:30.940Z,95240.80
2017-11-11T19:30:58.626Z,95241.94
2017-11-11T19:33:26.214Z,95241.10
2017-11-11T19:35:53.824Z,95240.23
2017-11-11T19:38:21.395Z,95221.99
2017-11-11T19:40:48.972Z,95220.09
2017-11-11T19:43:16.654Z,95226.41
2017-11-11T19:45:44.206Z,95216.61
2017-11-11T19:48:11.792Z,95202.61
2017-11-11T19:50:39.358Z,95208.48
2017-11-11T19:53:07.087Z,95213.91
2017-11-11T19:55:34.713Z,95212.83
2017-11-11T19:58:02.288Z,95206.87
2017-11-11T20:00:30.013Z,95211.89
2017-11-11T20:02:57.715Z,95200.02
2017-11-11T20:05:25.260Z,95203.84
2017-11-11T20:07:52.825Z,95200.55
2017-11-11T20:10:20.447Z,95199.33
2017-11-11T20:12:48.025Z,95196.95
2017-11-11T20:15:15.691Z,95190.13
2017-11-11T20:17:43.281Z,95188.11
2017-11-11T20:20:10.835Z,95176.78
2017-11-11T20:22:40.203Z,95184.96
2017-11-11T20:25:08.124Z,95187.12
2017-11-11T20:27:35.698Z,95180.19
2017-11-11T20:30:03.283Z,95173.12
2017-11-11T20:32:31.188Z,95176.41
2017-11-11T20:34:58.814Z,95176.73
2017-11-11T20:37:26.445Z,95163.95
2017-11-11T20:39:54.150Z,95173.55
2017-11-11T20:42:22.945Z,95167.73
2017-11-11T20:44:50.514Z,95161.33
2017-11-11T20:47:18.276Z,95156.74
2017-11-11T20:49:45.958Z,95162.32
2017-11-11T20:52:13.519Z,95162.41
2017-11-11T20:54:41.092Z,95153.57
2017-11-11T20:57:08.680Z,95155.01
2017-11-11T20:59:36.404Z,95154.80
2017-11-11T21:02:04.229Z,95152.92
2017-11-11T21:04:31.798Z,95157.67
2017-11-11T21:06:59.372Z,95150.09
2017-11-11T21:09:27.289Z,95151.72
2017-11-11T21:11:54.873Z,95145.16
2017-11-11T21:14:23.169Z,95144.98
2017-11-11T21:16:50.719Z,95147.86
2017-11-11T21:19:18.801Z,95146.72
2017-11-11T21:21:46.468Z,95139.11
2017-11-11T21:24:14.039Z,95131.05
2017-11-11T21:26:41.611Z,95123.36
2017-11-11T21:29:10.165Z,95136.93
2017-11-11T21:31:37.813Z,95137.98
2017-11-11T21:34:05.406Z,95131.49
2017-11-11T21:36:33.009Z,95119.00
2017-11-11T21:39:00.645Z,95130.37
2017-11-11T21:41:28.827Z,95125.36
2017-11-11T21:43:56.455Z,95119.03
2017-11-11T21:46:24.243Z,95120.12
2017-11-11T21:48:51.848Z,95115.52
2017-11-11T21:51:19.653Z,95122.81
2017-11-11T21:53:47.215Z,95118.72
2017-11-11T21:56:14.886Z,95116.91
2017-11-11T21:58:42.460Z,95113.82
2017-11-11T22:01:10.072Z,95106.00
2017-11-11T22:03:37.641Z,95113.69
2017-11-11T22:06:05.246Z,95105.16
2017-11-11T22:08:32.899Z,95102.53
2017-11-11T22:11:00.449Z,95110.83
2017-11-11T22:13:28.071Z,95098.83
2017-11-11T22:15:55.659Z,95103.88
2017-11-11T22:18:23.287Z,95096.96
2017-11-11T22:20:50.938Z,95096.96
2017-11-11T22:23:18.916Z,95096.38
2017-11-11T22:25:46.461Z,95102.95
2017-11-11T22:28:14.032Z,95098.52
2017-11-11T22:30:41.624Z,95097.16
2017-11-11T22:33:09.611Z,95091.13
2017-11-11T22:35:37.636Z,95090.41
2017-11-11T22:38:05.270Z,95087.09
2017-11-11T22:40:32.839Z,95083.84
2017-11-11T22:43:00.466Z,95081.88
2017-11-11T22:45:28.615Z,95074.18
2017-11-11T22:47:56.172Z,95077.75
2017-11-11T22:50:23.737Z,95083.07
2017-11-11T22:52:51.328Z,95076.83
2017-11-11T22:55:19.302Z,95078.94
2017-11-11T22:57:46.912Z,95082.23
2017-11-11T23:00:14.539Z,95070.76
2017-11-11T23:02:42.128Z,95070.11
2017-11-11T23:05:10.286Z,95067.13
2017-11-11T23:07:37.972Z,95061.83
2017-11-11T23:10:05.655Z,95061.87
2017-11-11T23:12:33.243Z,95070.26
2017-11-11T23:15:03.203Z,95059.83
2017-11-11T23:17:30.889Z,95063.78
2017-11-11T23:19:58.467Z,95062.58
2017-11-11T23:22:26.135Z,95065.69
2017-11-11T23:24:55.080Z,95062.22
2017-11-11T23:27:22.711Z,95063.59
2017-11-11T23:29:50.286Z,95056.19
2017-11-11T23:32:17.863Z,95052.00
2017-11-11T23:34:45.428Z,95054.73
2017-11-11T23:37:13.474Z,95049.94
2017-11-11T23:39:41.275Z,95044.86
2017-11-11T23:42:10.726Z,95044.92
2017-11-11T23:44:38.409Z,95037.77
2017-11-11T23:47:06.796Z,95044.16
2017-11-11T23:49:34.645Z,95049.94
2017-11-11T23:52:02.236Z,95046.43
2017-11-11T23:54:29.841Z,95047.98
2017-11-11T23:56:58.595Z,95037.33
2017-11-11T23:59:26.189Z,95034.77
